Airmont, New York
Current Conditions -  °F | °C
As of 9:51 AM on Thursday 23 Oct 2014 (Local Time) from KTEB Reporting Station
Overcast Overcast  
Wind Chill: 52°   Ceiling: 2100
Heat Index: 52°   Visibility: 10mi
Dew Point: 45°   Wind: 9mph
Humidity: 77%   Direction: 350°N
Pressure: 29.71"   Gusts: NA
Location:  41.1112°N, 74.0777°W
Report Text: KTEB 231351Z 35008KT 10SM BKN021 OVC027 11/07 A2971 RMK AO2 RAE33 SLP060 P0002 T01110072
Loading
Personal Weather Stations






























Interactive Weather Map New forecast layout! Learn more

10-Day Weather Forecast

Advertisements
Track Severe Weather on mobile